map of HYD home
HYD - Airport
Location
City:  Hyderabad, Telangana, India
Near (Alt.):Shamshabad
Name:Rajiv Gandhi International Airport
ICAO:VOHS
IATA:HYD

Details
Type:Airport (Aerodrome, Airfield)
Use:International (customs port of entry)
Latitude:1715'N (17.254)
Longitude:7826'E (78.431)
Variation:0.67W (WMM2015v2 magnetic declination)
0.02 annual change
Runways:1
Longest:13976 ft (4260 m), paved

Time
Time Zone:UTC+5:30
Local Time:

Weather
METAR:VOHS 041400Z 09005KT 5000 HZ SCT015 23/15 Q1020 NOSIG
TAF:VOHS 041100Z 0412/0518 12005KT 6000 FEW020
BECMG 0416/0418 14005KT 5000 HZ NSC
TEMPO 0500/0503 12005KT 3000 HZ
BECMG 0506/0508 12008KT 6000 FEW020
BECMG 0516/0518 VRB03KT 5000 HZ NSC

Related Locations
Nearby:
Farthest:IPC: 11589 mi / 18651 km
Easter Island (Isla de Pascua, Rapa Nui) [Mataveri Intl], VS, CL

Find:

   beyond  
but within

Other Information
Maps:
NOTAMs:
Links:
Sources:

  
  • flag of India
  

Sectional Chart

Flight Planning
at skyvector.com

Satellite Image

Google Maps Satellite view

 

Copyright © 2004-2019 Karl L. Swartz. All rights reserved.
The Great Circle Mapper name and logo are trademarks of the Great Circle Mapper.
All other trademarks mentioned herein belong to their respective owners.
Please see credits for attibutions and further copyright information.

  Follow gcmap on Facebook Follow gcmap on Twitter GCmap on LinkedIn

hCard Microformat

Geo Microformat